Time;durP1;ratioP1;P1;durP2;ratioP2;P2;SDS_P1;SDS_P2;PMS_P1;PMS_P2;Temp;Humidity;BMP_temperature;BMP_pressure;BME280_temperature;BME280_humidity;BME280_pressure;Samples;Min_cycle;Max_cycle;Signal;HPM_P1;HPM_P2
2022/03/25 00:00:33;;;;;;;23.77;21.90;;;5.30;11.30;;;;;;5034439;28;20452;-75
2022/03/25 00:02:59;;;;;;;20.30;18.47;;;5.30;11.50;;;;;;5034673;28;20175;-74
2022/03/25 00:05:25;;;;;;;20.02;18.23;;;5.30;11.50;;;;;;5034513;28;20203;-74
2022/03/25 00:07:50;;;;;;;19.10;17.77;;;5.20;11.60;;;;;;5034360;28;20214;-74
2022/03/25 00:10:16;;;;;;;20.37;18.13;;;5.20;11.60;;;;;;5034941;28;20183;-75
2022/03/25 00:12:42;;;;;;;22.03;19.90;;;5.20;11.60;;;;;;5034621;28;20180;-75
2022/03/25 00:15:07;;;;;;;20.07;18.37;;;5.20;11.60;;;;;;5034493;28;20183;-75
2022/03/25 00:17:33;;;;;;;18.53;17.03;;;5.10;11.70;;;;;;5034206;28;20190;-74
2022/03/25 00:19:59;;;;;;;19.50;18.00;;;5.10;11.70;;;;;;5034268;28;20683;-75
2022/03/25 00:22:25;;;;;;;21.17;19.40;;;5.10;11.70;;;;;;5034234;28;20422;-74
2022/03/25 00:24:50;;;;;;;20.43;18.83;;;5.10;11.70;;;;;;5034326;28;20181;-75
2022/03/25 00:27:17;;;;;;;21.53;19.50;;;5.10;11.70;;;;;;5033685;28;20501;-75
2022/03/25 00:29:43;;;;;;;20.00;18.20;;;5.00;11.60;;;;;;5034284;28;20241;-75
2022/03/25 00:32:08;;;;;;;19.47;17.97;;;5.00;11.60;;;;;;5034098;28;20171;-75
2022/03/25 00:34:34;;;;;;;18.97;17.37;;;5.00;11.60;;;;;;5034064;28;20179;-75
2022/03/25 00:37:00;;;;;;;21.37;19.13;;;5.00;11.60;;;;;;5033563;28;20190;-74
2022/03/25 00:39:26;;;;;;;20.15;18.65;;;4.90;11.50;;;;;;5034065;28;20198;-75
2022/03/25 00:41:51;;;;;;;19.87;18.50;;;4.90;11.50;;;;;;5034011;28;20171;-74
2022/03/25 00:44:18;;;;;;;20.00;18.10;;;4.90;11.50;;;;;;5033924;28;20171;-74
2022/03/25 00:46:44;;;;;;;22.17;20.10;;;4.80;11.50;;;;;;5033468;28;20187;-74
2022/03/25 00:49:11;;;;;;;20.30;18.50;;;4.70;11.70;;;;;;5033670;28;20582;-73
2022/03/25 00:51:37;;;;;;;27.55;19.77;;;4.80;11.70;;;;;;5033578;28;20414;-74
2022/03/25 00:54:03;;;;;;;21.60;19.50;;;4.80;11.60;;;;;;5033892;28;20175;-73
2022/03/25 00:56:29;;;;;;;22.95;20.77;;;4.80;11.80;;;;;;5033320;28;20466;-75
2022/03/25 00:58:54;;;;;;;20.48;18.60;;;4.80;11.80;;;;;;5033555;28;20177;-73
2022/03/25 01:01:20;;;;;;;20.73;18.83;;;4.80;11.50;;;;;;5033589;28;20179;-73
2022/03/25 01:03:46;;;;;;;19.50;17.90;;;4.70;11.80;;;;;;5033597;28;20176;-74
2022/03/25 01:06:12;;;;;;;21.35;19.25;;;4.70;11.90;;;;;;5033164;28;20190;-73
2022/03/25 01:08:38;;;;;;;21.37;19.10;;;4.70;12.10;;;;;;5033077;28;20545;-74
2022/03/25 01:11:04;;;;;;;21.33;19.40;;;4.70;12.00;;;;;;5033203;28;20414;-73
2022/03/25 01:13:33;;;;;;;20.33;18.37;;;4.60;11.50;;;;;;5032760;28;20185;-74
2022/03/25 01:16:04;;;;;;;23.02;19.40;;;4.70;11.90;;;;;;5033002;28;20515;-74
2022/03/25 01:18:30;;;;;;;20.27;18.27;;;4.70;11.90;;;;;;5032835;28;20179;-74
2022/03/25 01:20:57;;;;;;;22.35;19.02;;;4.70;11.90;;;;;;5033153;28;20172;-74
2022/03/25 01:23:23;;;;;;;17.40;16.13;;;4.60;12.00;;;;;;5033098;28;20233;-74
2022/03/25 01:25:49;;;;;;;21.63;19.63;;;4.60;12.00;;;;;;5031964;28;20214;-73
2022/03/25 01:28:14;;;;;;;19.97;18.33;;;4.60;12.10;;;;;;5032759;28;20199;-73
2022/03/25 01:30:40;;;;;;;20.47;18.73;;;4.60;12.10;;;;;;5033300;28;20175;-74
2022/03/25 01:33:06;;;;;;;20.47;18.60;;;4.60;12.20;;;;;;5033126;28;20613;-74
2022/03/25 01:35:32;;;;;;;21.13;19.13;;;4.50;12.20;;;;;;5032818;28;20198;-74
2022/03/25 01:37:57;;;;;;;21.60;19.70;;;4.50;12.30;;;;;;5031262;28;20254;-73
2022/03/25 01:40:23;;;;;;;19.63;18.03;;;4.50;12.30;;;;;;5032560;28;20671;-75
2022/03/25 01:42:49;;;;;;;20.95;18.98;;;4.50;12.40;;;;;;5032711;28;20191;-73
2022/03/25 01:45:32;;;;;;;18.90;17.27;;;4.40;12.50;;;;;;5032786;28;20294;-74
2022/03/25 01:47:58;;;;;;;19.92;18.23;;;4.40;12.50;;;;;;5032370;28;20620;-74
2022/03/25 01:50:24;;;;;;;21.50;19.20;;;4.40;12.70;;;;;;5032541;28;20171;-74
2022/03/25 01:52:51;;;;;;;20.10;18.50;;;4.30;12.60;;;;;;5032564;28;20244;-74
2022/03/25 01:55:21;;;;;;;22.50;20.02;;;4.30;12.80;;;;;;5032346;28;20199;-74
2022/03/25 01:57:49;;;;;;;18.92;17.27;;;4.30;12.80;;;;;;5032281;28;20203;-74
2022/03/25 02:00:17;;;;;;;24.38;19.20;;;4.30;12.80;;;;;;5032260;28;20321;-74
2022/03/25 02:02:43;;;;;;;20.55;18.77;;;4.30;12.80;;;;;;5032352;28;20183;-73
2022/03/25 02:05:09;;;;;;;21.15;19.20;;;4.20;13.00;;;;;;5032500;28;20214;-73
2022/03/25 02:07:35;;;;;;;22.50;20.02;;;4.30;13.10;;;;;;5031982;28;20632;-73
2022/03/25 02:10:01;;;;;;;22.43;20.53;;;4.20;12.70;;;;;;5032536;28;20270;-74
2022/03/25 02:12:26;;;;;;;22.73;20.30;;;4.20;13.20;;;;;;5032187;28;20560;-74
2022/03/25 02:14:52;;;;;;;22.10;19.80;;;4.20;12.90;;;;;;5032158;28;20186;-74
2022/03/25 02:17:18;;;;;;;22.27;19.92;;;4.20;12.90;;;;;;5031580;28;20255;-73
2022/03/25 02:19:43;;;;;;;20.50;18.50;;;4.20;13.00;;;;;;5032132;28;20205;-75
2022/03/25 02:22:09;;;;;;;19.53;17.60;;;4.10;13.00;;;;;;5032010;28;20542;-75
2022/03/25 02:24:34;;;;;;;22.63;20.10;;;4.10;13.10;;;;;;5032004;28;20708;-75
2022/03/25 02:27:02;;;;;;;19.87;18.17;;;4.10;13.30;;;;;;5031567;28;20707;-74
2022/03/25 02:29:27;;;;;;;21.15;19.15;;;4.00;13.10;;;;;;5030781;28;20553;-73
2022/03/25 02:31:53;;;;;;;19.30;17.50;;;4.00;13.30;;;;;;5031895;28;20179;-74
2022/03/25 02:34:18;;;;;;;21.07;19.10;;;4.00;13.40;;;;;;5031906;28;20189;-74
2022/03/25 02:36:46;;;;;;;21.60;19.33;;;4.00;13.40;;;;;;5031951;28;20199;-73
2022/03/25 02:39:13;;;;;;;19.55;17.60;;;3.90;13.30;;;;;;5032058;28;20183;-74
2022/03/25 02:41:39;;;;;;;21.13;18.95;;;4.00;13.70;;;;;;5031819;28;20806;-74
2022/03/25 02:44:06;;;;;;;21.13;19.05;;;3.90;13.70;;;;;;5031654;28;20183;-74
2022/03/25 02:46:32;;;;;;;18.92;17.35;;;3.90;13.80;;;;;;5031388;28;20207;-75
2022/03/25 02:48:57;;;;;;;20.10;18.17;;;3.90;13.80;;;;;;5031774;28;20211;-74
2022/03/25 02:51:23;;;;;;;20.93;19.20;;;3.80;13.80;;;;;;5031672;28;20285;-73
2022/03/25 02:53:49;;;;;;;21.63;19.27;;;3.80;13.90;;;;;;5031671;28;20183;-73
2022/03/25 02:56:15;;;;;;;21.70;19.43;;;3.80;13.90;;;;;;5032122;28;20191;-73
2022/03/25 02:58:40;;;;;;;20.80;18.70;;;3.80;14.10;;;;;;5031514;28;20258;-75
2022/03/25 03:01:06;;;;;;;21.00;19.30;;;3.80;14.20;;;;;;5031728;28;20505;-73
2022/03/25 03:03:33;;;;;;;22.43;20.27;;;3.80;14.30;;;;;;5031692;28;20194;-74
2022/03/25 03:05:59;;;;;;;21.75;19.50;;;3.80;14.20;;;;;;5031612;28;20472;-73
2022/03/25 03:08:24;;;;;;;23.05;18.88;;;3.80;14.50;;;;;;5032011;28;20227;-74
2022/03/25 03:10:50;;;;;;;19.30;17.60;;;3.70;14.40;;;;;;5031666;28;20623;-74
2022/03/25 03:13:15;;;;;;;20.33;18.13;;;3.70;14.50;;;;;;5031450;28;20186;-74
2022/03/25 03:15:41;;;;;;;18.10;16.37;;;3.70;14.60;;;;;;5031695;28;20502;-73
2022/03/25 03:18:07;;;;;;;23.43;19.60;;;3.70;15.00;;;;;;5031404;28;20589;-73
2022/03/25 03:20:33;;;;;;;20.23;18.23;;;3.70;14.40;;;;;;5032298;28;20262;-73
2022/03/25 03:22:58;;;;;;;21.03;19.00;;;3.70;14.30;;;;;;5031653;28;20188;-74
2022/03/25 03:25:26;;;;;;;23.03;20.73;;;3.70;14.60;;;;;;5031826;28;20199;-74
2022/03/25 03:27:52;;;;;;;19.88;17.85;;;3.60;14.60;;;;;;5031115;28;20679;-74
2022/03/25 03:30:19;;;;;;;20.75;18.83;;;3.60;14.80;;;;;;5031690;28;20648;-74
2022/03/25 03:32:45;;;;;;;22.60;19.55;;;3.50;15.50;;;;;;5031419;28;20176;-74
2022/03/25 03:35:13;;;;;;;21.02;18.90;;;3.50;14.90;;;;;;5032358;28;20179;-73
2022/03/25 03:37:44;;;;;;;20.05;18.15;;;3.40;14.90;;;;;;5035025;28;20641;-74
2022/03/25 03:40:11;;;;;;;23.27;20.95;;;3.40;14.90;;;;;;5035047;28;20194;-74
2022/03/25 03:42:37;;;;;;;22.08;19.88;;;3.40;14.90;;;;;;5035036;28;20209;-75
2022/03/25 03:45:04;;;;;;;20.08;18.40;;;3.30;14.80;;;;;;5035054;28;20194;-74
2022/03/25 03:47:30;;;;;;;18.45;16.60;;;3.20;15.10;;;;;;5034584;28;20260;-74
2022/03/25 03:49:55;;;;;;;20.03;17.93;;;3.20;15.20;;;;;;5034851;28;20171;-74
2022/03/25 03:52:23;;;;;;;22.97;20.93;;;3.20;15.30;;;;;;5034698;28;20171;-74
2022/03/25 03:54:49;;;;;;;20.02;18.25;;;3.20;15.20;;;;;;5034692;28;20206;-75
2022/03/25 03:57:14;;;;;;;23.17;18.90;;;3.20;15.20;;;;;;5034512;28;20563;-74
2022/03/25 03:59:40;;;;;;;18.80;17.03;;;3.20;15.30;;;;;;5034730;28;20190;-74
2022/03/25 04:02:06;;;;;;;20.13;18.30;;;3.20;15.30;;;;;;5034957;28;20519;-74
2022/03/25 04:04:31;;;;;;;20.43;18.50;;;3.10;15.40;;;;;;5034547;28;20171;-75
2022/03/25 04:06:58;;;;;;;21.90;19.93;;;3.10;15.30;;;;;;5034198;28;20242;-75
2022/03/25 04:09:24;;;;;;;20.95;19.10;;;3.10;15.40;;;;;;5034578;28;20173;-74
2022/03/25 04:11:49;;;;;;;21.00;18.90;;;3.00;15.30;;;;;;5034480;28;20179;-75
2022/03/25 04:14:15;;;;;;;22.70;20.70;;;3.00;15.20;;;;;;5034458;28;20171;-74
2022/03/25 04:16:41;;;;;;;19.33;17.27;;;3.00;15.30;;;;;;5034056;28;20584;-74
2022/03/25 04:19:06;;;;;;;22.27;20.10;;;2.90;15.60;;;;;;5035198;28;20182;-74
2022/03/25 04:21:32;;;;;;;18.20;16.83;;;3.00;15.90;;;;;;5034327;28;20171;-75
2022/03/25 04:23:57;;;;;;;24.27;21.67;;;3.10;15.60;;;;;;5034214;28;20653;-75
2022/03/25 04:26:24;;;;;;;19.97;18.10;;;3.10;15.40;;;;;;5034108;28;20211;-75
2022/03/25 04:28:50;;;;;;;21.17;19.00;;;3.10;15.50;;;;;;5034035;28;20203;-74
2022/03/25 04:31:15;;;;;;;20.30;18.43;;;3.00;15.70;;;;;;5034330;28;20621;-74
2022/03/25 04:33:41;;;;;;;18.93;17.07;;;3.00;15.80;;;;;;5034507;28;20175;-74
2022/03/25 04:36:08;;;;;;;21.47;19.27;;;2.90;16.10;;;;;;5034813;28;20194;-74
2022/03/25 04:38:34;;;;;;;22.10;20.15;;;2.80;16.60;;;;;;5034193;28;20174;-74
2022/03/25 04:40:59;;;;;;;20.87;18.70;;;2.80;16.70;;;;;;5034619;28;20187;-74
2022/03/25 04:43:25;;;;;;;19.93;17.37;;;2.80;16.80;;;;;;5034467;28;20425;-74
2022/03/25 04:45:50;;;;;;;20.90;18.40;;;2.90;16.60;;;;;;5034231;28;20213;-74
2022/03/25 04:48:16;;;;;;;19.93;18.13;;;3.00;16.40;;;;;;5033082;28;20645;-74
2022/03/25 04:50:43;;;;;;;23.23;20.83;;;3.00;16.20;;;;;;5034183;28;20174;-74
2022/03/25 04:53:09;;;;;;;21.13;19.02;;;3.00;16.20;;;;;;5034523;28;20659;-74
2022/03/25 04:55:35;;;;;;;21.30;19.37;;;2.90;16.50;;;;;;5034127;28;20353;-74
2022/03/25 04:58:00;;;;;;;23.73;19.20;;;2.80;16.60;;;;;;5033699;28;20651;-74
2022/03/25 05:00:26;;;;;;;21.43;19.13;;;2.90;16.60;;;;;;5033761;28;20228;-73
2022/03/25 05:02:52;;;;;;;20.57;18.37;;;2.90;16.50;;;;;;5033753;28;20187;-73
2022/03/25 05:05:18;;;;;;;22.60;20.17;;;2.80;16.60;;;;;;5032426;28;20444;-74
2022/03/25 05:07:45;;;;;;;20.57;18.47;;;2.80;16.60;;;;;;5033479;28;20456;-74
2022/03/25 05:10:13;;;;;;;24.10;21.65;;;2.70;16.80;;;;;;5034673;28;20208;-75
2022/03/25 05:12:43;;;;;;;22.63;20.25;;;2.70;16.90;;;;;;5033896;28;20659;-75
2022/03/25 05:15:09;;;;;;;19.80;18.00;;;2.70;17.00;;;;;;5035214;28;20181;-75
2022/03/25 05:17:44;;;;;;;22.23;20.00;;;2.60;17.00;;;;;;5047718;22;20237;-68
2022/03/25 05:20:10;;;;;;;27.30;19.60;;;2.60;17.10;;;;;;5048724;28;20185;-69
2022/03/25 05:22:35;;;;;;;23.17;18.10;;;2.60;17.00;;;;;;5033377;28;20730;-69
2022/03/25 05:25:06;;;;;;;22.67;19.83;;;2.60;16.90;;;;;;5032221;28;20221;-68
2022/03/25 05:27:41;;;;;;;20.73;18.73;;;2.60;17.00;;;;;;5033052;28;20208;-69
2022/03/25 05:30:07;;;;;;;20.63;17.20;;;2.60;17.00;;;;;;5032447;28;20185;-68
2022/03/25 05:32:32;;;;;;;21.58;19.58;;;2.60;17.00;;;;;;5031737;28;20184;-69
2022/03/25 05:34:58;;;;;;;29.40;19.07;;;2.50;17.20;;;;;;5033153;28;20180;-68
2022/03/25 05:37:24;;;;;;;20.30;18.50;;;2.60;17.20;;;;;;5031510;28;20695;-68
2022/03/25 05:39:50;;;;;;;18.87;16.97;;;2.60;16.90;;;;;;5033100;28;20678;-69
2022/03/25 05:42:16;;;;;;;19.47;17.60;;;2.60;17.10;;;;;;5033078;28;20179;-68
2022/03/25 05:44:42;;;;;;;24.17;19.77;;;2.70;17.00;;;;;;5033161;28;20178;-70
2022/03/25 05:47:07;;;;;;;20.93;19.03;;;2.70;16.70;;;;;;5032632;28;20198;-68
2022/03/25 05:49:34;;;;;;;21.17;18.70;;;2.70;16.70;;;;;;5033129;28;20185;-69
2022/03/25 05:51:59;;;;;;;24.02;21.48;;;2.80;16.60;;;;;;5033053;28;20170;-68
2022/03/25 05:54:25;;;;;;;20.87;18.83;;;2.90;16.30;;;;;;5032991;28;20656;-69
2022/03/25 05:56:50;;;;;;;24.10;20.93;;;3.00;15.90;;;;;;5031221;28;20597;-69
2022/03/25 05:59:16;;;;;;;21.53;19.37;;;3.20;16.20;;;;;;5032153;28;20179;-69
2022/03/25 06:01:42;;;;;;;22.43;20.23;;;3.40;16.00;;;;;;5032510;28;20175;-71
2022/03/25 06:04:11;;;;;;;31.73;20.00;;;3.60;15.90;;;;;;5032390;28;20685;-69
2022/03/25 06:06:36;;;;;;;21.13;19.00;;;3.90;15.20;;;;;;5030936;28;20286;-70
2022/03/25 06:09:02;;;;;;;20.73;18.60;;;4.40;14.30;;;;;;5032355;28;20318;-68
2022/03/25 06:11:27;;;;;;;23.23;17.50;;;4.80;14.20;;;;;;5032482;28;20692;-69
2022/03/25 06:13:53;;;;;;;23.03;20.97;;;5.30;14.00;;;;;;5032211;28;20210;-69
2022/03/25 06:16:19;;;;;;;19.90;18.00;;;5.80;12.70;;;;;;5032853;28;20215;-69
2022/03/25 06:18:44;;;;;;;21.90;20.07;;;6.40;12.70;;;;;;5031979;28;20177;-71
2022/03/25 06:21:10;;;;;;;20.33;18.40;;;6.80;9.40;;;;;;5031124;28;20776;-69
2022/03/25 06:23:35;;;;;;;23.77;21.87;;;7.30;11.00;;;;;;5032023;28;20744;-70
2022/03/25 06:26:01;;;;;;;23.93;21.40;;;7.80;9.00;;;;;;5032177;28;20195;-70
2022/03/25 06:28:26;;;;;;;21.40;19.80;;;8.20;9.30;;;;;;5030594;28;20294;-71
2022/03/25 06:30:52;;;;;;;24.03;22.17;;;8.80;9.00;;;;;;5031986;28;20270;-70
2022/03/25 06:33:18;;;;;;;23.13;21.30;;;9.40;8.50;;;;;;5030705;28;20201;-70
2022/03/25 06:35:44;;;;;;;23.67;21.43;;;9.80;7.00;;;;;;5031820;28;20262;-70
2022/03/25 06:38:10;;;;;;;24.50;22.30;;;10.30;4.10;;;;;;5031796;28;20267;-70
2022/03/25 06:40:36;;;;;;;25.10;22.80;;;10.70;3.80;;;;;;5030770;28;20789;-69
2022/03/25 06:43:02;;;;;;;24.70;22.63;;;11.00;2.90;;;;;;5030580;28;20452;-69
2022/03/25 06:45:28;;;;;;;26.17;23.90;;;11.30;2.90;;;;;;5030588;28;20476;-70
2022/03/25 06:47:54;;;;;;;24.93;22.93;;;11.40;2.20;;;;;;5031350;28;20447;-70
2022/03/25 06:50:21;;;;;;;24.07;22.30;;;11.40;2.60;;;;;;5031813;28;20217;-69
2022/03/25 06:52:48;;;;;;;25.87;23.40;;;11.20;1.60;;;;;;5031772;28;20418;-69
2022/03/25 06:55:15;;;;;;;24.60;22.70;;;11.20;2.40;;;;;;5031848;28;20450;-71
2022/03/25 06:57:40;;;;;;;25.77;23.50;;;11.50;2.40;;;;;;5030266;28;20484;-70
2022/03/25 07:00:12;;;;;;;24.87;22.93;;;11.70;2.50;;;;;;5030386;28;20465;-70
2022/03/25 07:02:39;;;;;;;24.33;22.37;;;11.80;1.90;;;;;;5031714;28;20894;-71
2022/03/25 07:05:05;;;;;;;25.07;23.00;;;11.50;1.70;;;;;;5031663;28;20429;-70
2022/03/25 07:07:32;;;;;;;24.83;22.77;;;11.40;1.80;;;;;;5031259;28;20460;-70
2022/03/25 07:09:58;;;;;;;25.87;22.87;;;11.60;1.80;;;;;;5032272;28;20431;-69
2022/03/25 07:12:24;;;;;;;25.37;23.27;;;11.50;1.70;;;;;;5035369;28;20465;-71
2022/03/25 07:14:49;;;;;;;22.90;21.13;;;11.40;1.60;;;;;;5034470;28;20460;-69
2022/03/25 07:17:15;;;;;;;26.47;24.10;;;11.20;1.90;;;;;;5035127;28;20218;-70
2022/03/25 07:19:40;;;;;;;24.20;22.43;;;11.10;1.50;;;;;;5035455;28;20182;-70
2022/03/25 07:22:06;;;;;;;25.77;23.10;;;10.90;2.00;;;;;;5035365;28;20172;-71
2022/03/25 07:24:31;;;;;;;24.90;22.57;;;10.80;2.30;;;;;;5035436;28;20185;-69
2022/03/25 07:26:57;;;;;;;25.93;23.93;;;10.70;2.60;;;;;;5034952;28;20208;-68
2022/03/25 07:29:23;;;;;;;32.97;23.57;;;10.60;2.50;;;;;;5035143;28;20211;-69
2022/03/25 07:31:48;;;;;;;25.60;23.63;;;10.50;2.80;;;;;;5035526;28;20190;-69
2022/03/25 07:34:14;;;;;;;29.83;25.97;;;10.50;3.20;;;;;;5035627;28;20598;-70
2022/03/25 07:36:39;;;;;;;25.13;23.00;;;10.50;2.50;;;;;;5035239;28;20198;-70
2022/03/25 07:39:05;;;;;;;24.30;22.20;;;10.50;2.50;;;;;;5035210;28;20208;-70
2022/03/25 07:41:31;;;;;;;25.30;23.00;;;10.40;2.90;;;;;;5035585;28;20230;-70
2022/03/25 07:43:56;;;;;;;25.23;23.07;;;10.40;3.30;;;;;;5035133;28;20180;-71
2022/03/25 07:46:25;;;;;;;24.10;22.20;;;10.50;2.70;;;;;;5034861;28;20732;-70
2022/03/25 07:48:51;;;;;;;27.03;24.23;;;10.50;2.60;;;;;;5034848;28;20216;-72
2022/03/25 07:51:16;;;;;;;25.90;23.83;;;10.60;2.30;;;;;;5035202;28;20415;-71
2022/03/25 07:53:43;;;;;;;26.47;23.97;;;10.70;2.50;;;;;;5035004;28;20415;-69
2022/03/25 07:56:09;;;;;;;25.40;23.10;;;10.90;2.50;;;;;;5035101;28;20229;-70
2022/03/25 07:58:35;;;;;;;24.10;22.20;;;11.00;2.70;;;;;;5033157;28;20468;-70
2022/03/25 08:01:00;;;;;;;33.27;25.30;;;11.10;3.00;;;;;;5034772;28;20282;-69
2022/03/25 08:03:26;;;;;;;26.50;24.10;;;11.10;1.60;;;;;;5033983;28;20648;-70
2022/03/25 08:05:52;;;;;;;24.83;22.87;;;11.20;2.60;;;;;;5035257;28;20201;-70
2022/03/25 08:08:22;;;;;;;27.23;24.73;;;11.30;1.60;;;;;;5034422;28;20197;-69
2022/03/25 08:10:47;;;;;;;23.00;21.20;;;11.40;1.70;;;;;;5034462;28;20421;-70
2022/03/25 08:13:15;;;;;;;25.23;23.50;;;11.50;1.70;;;;;;5034521;28;20426;-69
2022/03/25 08:15:40;;;;;;;28.60;25.73;;;11.60;1.10;;;;;;5034302;28;20289;-69
2022/03/25 08:18:10;;;;;;;25.70;23.00;;;11.60;1.80;;;;;;5034388;28;20421;-69
2022/03/25 08:20:37;;;;;;;25.83;23.47;;;11.80;1.30;;;;;;5033041;28;20210;-69
2022/03/25 08:23:04;;;;;;;24.70;22.90;;;12.00;1.60;;;;;;5034346;28;21025;-70
2022/03/25 08:28:16;;;;;;;26.67;24.23;;;12.30;1.00;;;;;;5034488;28;20504;-71
2022/03/25 08:30:42;;;;;;;26.03;23.67;;;12.50;1.00;;;;;;5033071;28;20421;-71
2022/03/25 08:33:08;;;;;;;25.43;23.37;;;12.60;1.00;;;;;;5034369;28;20410;-71
2022/03/25 08:35:35;;;;;;;26.90;24.30;;;12.70;1.00;;;;;;5034004;28;20413;-71
2022/03/25 08:38:03;;;;;;;26.17;23.77;;;12.80;1.00;;;;;;5033963;28;20429;-70
2022/03/25 08:40:31;;;;;;;26.23;24.20;;;12.80;1.00;;;;;;5034194;28;20418;-71
2022/03/25 08:42:57;;;;;;;28.93;24.30;;;12.80;1.00;;;;;;5034340;28;20789;-71
2022/03/25 08:45:23;;;;;;;30.83;27.63;;;12.90;1.00;;;;;;5033980;28;20417;-70
2022/03/25 08:47:49;;;;;;;29.63;26.83;;;12.70;1.00;;;;;;5032188;28;20213;-70
2022/03/25 08:50:16;;;;;;;27.10;25.03;;;12.40;1.00;;;;;;5032754;28;20429;-70
2022/03/25 08:52:44;;;;;;;29.10;25.93;;;12.40;1.00;;;;;;5034057;28;20417;-73
2022/03/25 08:55:11;;;;;;;27.47;25.10;;;12.50;1.00;;;;;;5032655;28;20821;-69
2022/03/25 08:57:38;;;;;;;25.87;23.57;;;12.30;1.00;;;;;;5033474;28;20473;-70
2022/03/25 09:00:06;;;;;;;27.00;24.83;;;12.40;1.00;;;;;;5033655;28;20515;-70
2022/03/25 09:02:32;;;;;;;27.20;24.90;;;12.60;1.00;;;;;;5033809;28;20478;-70
2022/03/25 09:04:58;;;;;;;27.33;25.03;;;12.80;1.00;;;;;;5033645;28;20406;-70
2022/03/25 09:07:23;;;;;;;27.03;24.67;;;12.90;1.00;;;;;;5032995;28;20438;-70
2022/03/25 09:09:49;;;;;;;29.53;25.47;;;12.90;1.00;;;;;;5033610;28;20539;-70
2022/03/25 09:12:15;;;;;;;25.90;23.63;;;13.00;1.00;;;;;;5033695;28;20183;-72
2022/03/25 09:14:40;;;;;;;27.90;25.37;;;13.00;1.00;;;;;;5033380;28;20183;-69
2022/03/25 09:17:06;;;;;;;25.43;23.33;;;13.10;1.00;;;;;;5032211;28;20265;-69
2022/03/25 09:19:32;;;;;;;28.33;25.87;;;13.30;1.00;;;;;;5032374;28;20172;-70
2022/03/25 09:21:57;;;;;;;28.37;26.03;;;13.00;1.00;;;;;;5032243;28;20421;-69
2022/03/25 09:24:23;;;;;;;28.50;25.93;;;13.00;1.00;;;;;;5032224;28;20222;-70
2022/03/25 09:26:48;;;;;;;29.90;27.57;;;13.00;1.00;;;;;;5031913;28;20199;-70
2022/03/25 09:29:14;;;;;;;27.67;25.20;;;13.10;1.00;;;;;;5032207;28;20211;-70
2022/03/25 09:31:42;;;;;;;28.67;26.33;;;13.30;1.00;;;;;;5032142;28;20187;-69
2022/03/25 09:36:53;;;;;;;31.50;28.40;;;13.60;1.00;;;;;;5032383;28;20437;-69
2022/03/25 09:39:19;;;;;;;29.57;26.90;;;13.80;1.00;;;;;;5031943;28;20903;-69
2022/03/25 09:41:45;;;;;;;30.67;27.93;;;14.00;1.00;;;;;;5032037;28;20682;-69
2022/03/25 09:44:15;;;;;;;28.80;26.00;;;14.10;1.00;;;;;;5032016;28;20522;-69
2022/03/25 09:46:42;;;;;;;31.80;28.63;;;14.20;1.00;;;;;;5031678;28;20528;-69
2022/03/25 09:49:08;;;;;;;24.70;22.80;;;14.30;1.00;;;;;;5031838;28;20817;-70
2022/03/25 09:51:35;;;;;;;30.27;27.40;;;14.20;1.00;;;;;;5030871;28;20450;-70
2022/03/25 09:54:01;;;;;;;27.70;25.60;;;14.00;1.00;;;;;;5031788;28;20426;-70
2022/03/25 09:56:27;;;;;;;29.80;26.90;;;14.10;1.00;;;;;;5031652;28;20801;-71
2022/03/25 09:58:53;;;;;;;29.50;26.80;;;14.30;1.00;;;;;;5031365;28;20612;-71
2022/03/25 10:01:18;;;;;;;27.30;24.87;;;14.30;1.00;;;;;;5030916;28;20467;-71
2022/03/25 10:03:44;;;;;;;30.43;27.70;;;14.30;1.00;;;;;;5030619;28;20194;-73
2022/03/25 10:06:12;;;;;;;27.90;24.90;;;14.50;1.00;;;;;;5031954;28;20610;-70
2022/03/25 10:08:40;;;;;;;29.47;26.90;;;14.40;1.00;;;;;;5031515;28;20212;-70
2022/03/25 10:11:22;;;;;;;30.47;27.47;;;14.40;1.00;;;;;;5031911;28;20474;-70
2022/03/25 10:13:50;;;;;;;28.97;26.53;;;14.40;1.00;;;;;;5031762;28;20921;-72
2022/03/25 10:16:45;;;;;;;26.93;24.80;;;14.50;1.00;;;;;;4994984;28;1060744;-69
2022/03/25 10:19:12;;;;;;;27.57;24.97;;;14.70;1.00;;;;;;5024445;28;20711;-70
2022/03/25 10:21:56;;;;;;;31.77;28.60;;;14.90;1.00;;;;;;5032745;28;20426;-69
2022/03/25 10:24:35;;;;;;;28.67;26.17;;;14.90;1.00;;;;;;5032050;28;20426;-69
2022/03/25 10:27:06;;;;;;;34.23;27.10;;;15.10;1.00;;;;;;5031967;28;20482;-69
2022/03/25 10:29:35;;;;;;;30.30;27.40;;;15.20;1.00;;;;;;5030812;28;20472;-70
2022/03/25 10:32:18;;;;;;;31.97;28.67;;;15.20;1.00;;;;;;5032234;28;20831;-70
2022/03/25 10:34:47;;;;;;;28.13;25.43;;;15.20;1.00;;;;;;5031976;28;20413;-69
2022/03/25 10:37:19;;;;;;;31.33;28.23;;;15.40;1.00;;;;;;5031630;28;20436;-69
2022/03/25 10:39:52;;;;;;;29.40;26.57;;;15.20;1.00;;;;;;5030647;28;20983;-70
2022/03/25 10:42:18;;;;;;;30.83;28.23;;;15.30;1.00;;;;;;5031879;28;20416;-71
2022/03/25 10:44:43;;;;;;;30.83;28.13;;;15.40;1.00;;;;;;5031083;28;20422;-71
2022/03/25 10:47:15;;;;;;;30.40;27.63;;;15.40;1.00;;;;;;5031651;28;20447;-70
2022/03/25 10:49:46;;;;;;;28.40;25.90;;;15.50;1.00;;;;;;5031912;28;20680;-69
2022/03/25 10:52:30;;;;;;;29.33;26.67;;;15.60;1.00;;;;;;5031827;28;20546;-70
2022/03/25 10:55:14;;;;;;;30.23;27.20;;;15.30;1.00;;;;;;5031816;28;20409;-69
2022/03/25 10:58:07;;;;;;;33.57;27.37;;;15.50;1.00;;;;;;5031390;28;20423;-70
2022/03/25 11:00:33;;;;;;;27.53;25.23;;;15.70;1.00;;;;;;5030481;28;20425;-69
2022/03/25 11:02:58;;;;;;;29.93;27.47;;;15.80;1.00;;;;;;5030275;28;20417;-69
2022/03/25 11:05:25;;;;;;;28.83;26.53;;;16.00;1.00;;;;;;5031738;28;20240;-69
2022/03/25 11:07:51;;;;;;;31.33;27.97;;;16.10;1.00;;;;;;5030130;28;20203;-69
2022/03/25 11:10:17;;;;;;;29.37;26.70;;;16.10;1.00;;;;;;5032028;28;20467;-69
2022/03/25 11:12:48;;;;;;;30.07;27.43;;;16.10;1.00;;;;;;5031728;28;20409;-69
2022/03/25 11:15:17;;;;;;;30.10;27.43;;;15.90;1.00;;;;;;5031718;28;20410;-71
2022/03/25 11:17:44;;;;;;;32.00;29.33;;;16.00;1.00;;;;;;5031611;28;20599;-69
2022/03/25 11:20:14;;;;;;;27.67;25.43;;;16.00;1.00;;;;;;5031665;28;20429;-70
2022/03/25 11:22:53;;;;;;;28.90;26.20;;;16.20;1.00;;;;;;5030224;28;21024;-70
2022/03/25 11:25:21;;;;;;;29.03;26.27;;;16.30;1.00;;;;;;5031533;28;20432;-70
2022/03/25 11:27:53;;;;;;;28.87;26.57;;;16.20;1.00;;;;;;5031115;28;20461;-69
2022/03/25 11:30:19;;;;;;;30.40;27.60;;;16.20;1.00;;;;;;5031455;28;20415;-70
2022/03/25 11:32:57;;;;;;;28.70;25.90;;;16.20;1.00;;;;;;5031538;28;20417;-69
2022/03/25 11:35:24;;;;;;;26.57;24.17;;;16.20;1.00;;;;;;5031527;28;20412;-71
2022/03/25 11:38:09;;;;;;;27.87;25.13;;;16.30;1.00;;;;;;5031183;28;20430;-69
2022/03/25 11:40:36;;;;;;;27.97;25.67;;;16.50;1.00;;;;;;5029971;28;20424;-69
2022/03/25 11:43:18;;;;;;;28.63;25.77;;;16.60;1.00;;;;;;5031360;28;20410;-69
2022/03/25 11:45:45;;;;;;;27.77;25.43;;;16.40;1.00;;;;;;5031236;28;20421;-69
2022/03/25 11:48:11;;;;;;;29.53;26.60;;;16.50;1.00;;;;;;5030990;28;20511;-70
2022/03/25 11:50:44;;;;;;;27.80;25.23;;;16.60;1.00;;;;;;5031226;28;20524;-71
2022/03/25 11:53:12;;;;;;;26.93;24.40;;;16.70;1.00;;;;;;5031239;28;20183;-70
2022/03/25 11:56:09;;;;;;;28.07;25.50;;;16.90;1.00;;;;;;5031536;28;20413;-70
2022/03/25 11:58:53;;;;;;;26.90;24.50;;;17.10;1.00;;;;;;5030552;28;20927;-69
2022/03/25 12:01:20;;;;;;;28.47;25.87;;;17.00;1.00;;;;;;5033336;28;20421;-69
2022/03/25 12:03:52;;;;;;;27.17;24.90;;;16.80;1.00;;;;;;5034735;28;20418;-69
2022/03/25 12:06:19;;;;;;;27.70;25.73;;;16.90;1.00;;;;;;5034699;28;20470;-69
2022/03/25 12:09:05;;;;;;;28.57;26.50;;;16.90;1.00;;;;;;5034463;28;20862;-71
2022/03/25 12:11:51;;;;;;;26.93;24.70;;;17.00;1.00;;;;;;5034581;28;20406;-69
2022/03/25 12:14:18;;;;;;;28.80;26.23;;;17.10;1.00;;;;;;5034474;28;20409;-69
2022/03/25 12:16:49;;;;;;;27.60;25.37;;;17.10;1.00;;;;;;5033923;28;20460;-70
2022/03/25 12:19:26;;;;;;;26.40;24.50;;;17.20;1.00;;;;;;5034281;28;20563;-70
2022/03/25 12:21:53;;;;;;;28.10;25.70;;;17.30;1.00;;;;;;5034413;28;20424;-69
2022/03/25 12:24:19;;;;;;;27.43;25.43;;;17.50;1.00;;;;;;5034364;28;20459;-70
2022/03/25 12:26:45;;;;;;;27.93;25.53;;;17.60;1.00;;;;;;5032719;28;20446;-69
2022/03/25 12:29:11;;;;;;;26.47;24.57;;;17.70;1.00;;;;;;5034278;28;20958;-69
2022/03/25 12:31:37;;;;;;;25.97;23.23;;;17.80;1.00;;;;;;5034007;28;20218;-69
2022/03/25 12:34:05;;;;;;;27.03;24.83;;;17.60;1.00;;;;;;5034408;28;20509;-69
2022/03/25 12:36:43;;;;;;;28.93;26.07;;;17.60;1.00;;;;;;5033816;28;20433;-69
2022/03/25 12:39:16;;;;;;;26.90;24.50;;;17.70;1.00;;;;;;5034005;28;20450;-70
2022/03/25 12:41:49;;;;;;;27.40;25.23;;;17.80;1.00;;;;;;5033827;28;20430;-69
2022/03/25 12:44:24;;;;;;;26.33;24.03;;;17.90;1.00;;;;;;5032525;28;20426;-70